Time;durP1;ratioP1;P1;durP2;ratioP2;P2;SDS_P1;SDS_P2;PMS_P1;PMS_P2;Temp;Humidity;BMP_temperature;BMP_pressure;BME280_temperature;BME280_humidity;BME280_pressure;Samples;Min_cycle;Max_cycle;Signal;HPM_P1;HPM_P2
2024/02/03 00:00:08;;;;;;;;;;;;;;;12.49;47.44;101088.25;4937422;27;106438;-66
2024/02/03 00:02:34;;;;;;;;;;;;;;;12.49;47.22;101090.94;4952134;27;98113;-71
2024/02/03 00:05:01;;;;;;;;;;;;;;;12.48;47.13;101081.22;4950665;27;99701;-65
2024/02/03 00:07:27;;;;;;;;;;;;;;;12.47;47.29;101079.59;4936206;28;112128;-71
2024/02/03 00:09:53;;;;;;;;;;;;;;;12.48;47.22;101075.81;4950899;27;98255;-65
2024/02/03 00:12:21;;;;;;;;;;;;;;;12.47;47.27;101080.41;4941150;28;98529;-65
2024/02/03 00:14:47;;;;;;;;;;;;;;;12.46;47.49;101073.38;4949841;27;99938;-71
2024/02/03 00:17:13;;;;;;;;;;;;;;;12.47;47.36;101080.41;4957088;27;98012;-66
2024/02/03 00:19:40;;;;;;;;;;;;;;;12.47;47.44;101093.13;4965200;27;98094;-71
2024/02/03 00:22:06;;;;;;;;;;;;;;;12.46;47.50;101086.91;4968453;27;98643;-66
2024/02/03 00:24:32;;;;;;;;;;;;;;;12.45;47.50;101096.06;4953717;27;98164;-71
2024/02/03 00:26:58;;;;;;;;;;;;;;;12.46;47.50;101099.63;4953274;27;121727;-66
2024/02/03 00:29:24;;;;;;;;;;;;;;;12.46;47.49;101096.91;4938210;28;98484;-65
2024/02/03 00:31:50;;;;;;;;;;;;;;;12.45;47.34;101097.97;4968379;27;107202;-66
2024/02/03 00:34:16;;;;;;;;;;;;;;;12.44;47.23;101099.84;4935935;28;117030;-71
2024/02/03 00:36:42;;;;;;;;;;;;;;;12.44;47.31;101088.22;4953115;27;108069;-66
2024/02/03 00:39:09;;;;;;;;;;;;;;;12.44;47.36;101077.41;4939246;27;98419;-71
2024/02/03 00:41:35;;;;;;;;;;;;;;;12.44;47.20;101074.72;4950526;27;98238;-66
2024/02/03 00:44:01;;;;;;;;;;;;;;;12.44;47.55;101069.31;4954640;27;98347;-71
2024/02/03 00:46:27;;;;;;;;;;;;;;;12.44;47.46;101074.72;4938661;28;99526;-66
2024/02/03 00:48:53;;;;;;;;;;;;;;;12.43;47.32;101073.91;4939734;27;98209;-71
2024/02/03 00:51:20;;;;;;;;;;;;;;;12.43;47.43;101073.91;4950068;28;99257;-71
2024/02/03 00:53:46;;;;;;;;;;;;;;;12.44;47.38;101080.13;4967019;27;103437;-67
2024/02/03 00:56:12;;;;;;;;;;;;;;;12.44;47.38;101086.34;4934099;27;101042;-66
2024/02/03 00:58:37;;;;;;;;;;;;;;;12.44;47.20;101082.81;4949802;28;98297;-71
2024/02/03 01:01:04;;;;;;;;;;;;;;;12.44;47.56;101082.81;4950865;27;118231;-66
2024/02/03 01:03:30;;;;;;;;;;;;;;;12.44;47.19;101086.34;4938249;28;98163;-66
2024/02/03 01:05:56;;;;;;;;;;;;;;;12.45;47.53;101081.75;4936390;27;99637;-71
2024/02/03 01:08:22;;;;;;;;;;;;;;;12.45;47.29;101079.84;4942881;28;98134;-72
2024/02/03 01:10:48;;;;;;;;;;;;;;;12.45;47.14;101089.84;4968852;27;98298;-66
2024/02/03 01:13:15;;;;;;;;;;;;;;;12.45;47.45;101087.97;4953050;28;98605;-71
2024/02/03 01:15:41;;;;;;;;;;;;;;;12.46;47.35;101084.19;4969869;27;99504;-66
2024/02/03 01:18:07;;;;;;;;;;;;;;;12.48;47.48;101084.72;4970638;27;98058;-72
2024/02/03 01:20:33;;;;;;;;;;;;;;;12.47;47.51;101088.53;4937268;28;97941;-71
2024/02/03 01:22:59;;;;;;;;;;;;;;;12.49;47.19;101080.13;4954249;27;98814;-72
2024/02/03 01:25:25;;;;;;;;;;;;;;;12.51;47.34;101083.41;4968459;27;99195;-71
2024/02/03 01:27:51;;;;;;;;;;;;;;;12.50;47.19;101088.00;4966777;27;123532;-71
2024/02/03 01:30:17;;;;;;;;;;;;;;;12.51;47.15;101086.91;4969374;27;98835;-71
2024/02/03 01:32:43;;;;;;;;;;;;;;;12.52;47.31;101079.59;4952892;27;100728;-71
2024/02/03 01:35:10;;;;;;;;;;;;;;;12.52;47.47;101083.13;4952664;27;99770;-71
2024/02/03 01:37:36;;;;;;;;;;;;;;;12.52;47.48;101079.59;4940449;28;98609;-66
2024/02/03 01:40:03;;;;;;;;;;;;;;;12.53;47.50;101090.16;4939869;27;98666;-65
2024/02/03 01:42:29;;;;;;;;;;;;;;;12.55;47.29;101086.38;4938837;28;99561;-65
2024/02/03 01:44:55;;;;;;;;;;;;;;;12.54;47.71;101085.59;4941211;27;122427;-65
2024/02/03 01:47:21;;;;;;;;;;;;;;;12.55;47.43;101070.16;4958665;28;101494;-65
2024/02/03 01:49:48;;;;;;;;;;;;;;;12.57;47.49;101068.00;4970513;27;98112;-65
2024/02/03 01:52:14;;;;;;;;;;;;;;;12.58;47.43;101065.03;4960909;27;98321;-71
2024/02/03 01:54:43;;;;;;;;;;;;;;;12.56;47.30;101067.19;4955961;28;99840;-72
2024/02/03 01:57:09;;;;;;;;;;;;;;;12.58;47.48;101062.34;4940275;27;98870;-71
2024/02/03 01:59:35;;;;;;;;;;;;;;;12.59;47.17;101076.66;4969328;27;98590;-66
2024/02/03 02:02:01;;;;;;;;;;;;;;;12.59;47.26;101072.06;4935222;27;98417;-66
2024/02/03 02:04:28;;;;;;;;;;;;;;;12.60;47.54;101070.97;4954917;28;98221;-66
2024/02/03 02:06:55;;;;;;;;;;;;;;;12.61;47.37;101064.47;4956469;28;97880;-71
2024/02/03 02:09:21;;;;;;;;;;;;;;;12.62;47.38;101065.31;4939870;28;101456;-71
2024/02/03 02:11:47;;;;;;;;;;;;;;;12.62;47.33;101074.25;4954846;28;98672;-71
2024/02/03 02:14:13;;;;;;;;;;;;;;;12.63;47.30;101083.16;4956041;27;98069;-71
2024/02/03 02:16:39;;;;;;;;;;;;;;;12.63;47.61;101072.34;4953511;27;98055;-71
2024/02/03 02:19:06;;;;;;;;;;;;;;;12.64;47.42;101073.97;4967569;27;98117;-65
2024/02/03 02:21:32;;;;;;;;;;;;;;;12.63;47.54;101075.06;4954872;28;102655;-65
2024/02/03 02:23:58;;;;;;;;;;;;;;;12.65;47.39;101064.78;4972061;27;99382;-71
2024/02/03 02:26:24;;;;;;;;;;;;;;;12.64;47.48;101061.25;4951520;27;98982;-71
2024/02/03 02:28:52;;;;;;;;;;;;;;;12.65;47.51;101056.66;4952350;28;98281;-65
2024/02/03 02:31:18;;;;;;;;;;;;;;;12.65;47.22;101062.88;4954329;28;98334;-71
2024/02/03 02:33:44;;;;;;;;;;;;;;;12.66;47.34;101064.53;4956294;28;99552;-71
2024/02/03 02:36:10;;;;;;;;;;;;;;;12.67;47.60;101068.84;4952594;27;99790;-71
2024/02/03 02:38:37;;;;;;;;;;;;;;;12.66;47.29;101061.81;4950797;28;98405;-65
2024/02/03 02:41:03;;;;;;;;;;;;;;;12.68;47.31;101061.53;4964513;27;98312;-71
2024/02/03 02:43:29;;;;;;;;;;;;;;;12.66;47.34;101059.09;4938359;28;98530;-65
2024/02/03 02:45:56;;;;;;;;;;;;;;;12.67;47.27;101055.31;4941090;27;98201;-65
2024/02/03 02:48:22;;;;;;;;;;;;;;;12.67;47.41;101057.22;4954083;27;98081;-71
2024/02/03 02:50:48;;;;;;;;;;;;;;;12.67;47.64;101059.91;4951637;28;98144;-65
2024/02/03 02:53:14;;;;;;;;;;;;;;;12.67;47.37;101060.72;4939889;27;98101;-71
2024/02/03 02:55:41;;;;;;;;;;;;;;;12.67;47.63;101071.53;4951402;28;98128;-71
2024/02/03 02:58:07;;;;;;;;;;;;;;;12.67;47.34;101071.53;4951129;27;98672;-65
2024/02/03 03:00:33;;;;;;;;;;;;;;;12.67;47.42;101074.25;4936947;27;98015;-65
2024/02/03 03:03:00;;;;;;;;;;;;;;;12.67;47.18;101063.44;4973495;27;115354;-66
2024/02/03 03:05:26;;;;;;;;;;;;;;;12.67;47.50;101060.72;4953773;27;98149;-66
2024/02/03 03:07:52;;;;;;;;;;;;;;;12.68;47.66;101067.75;4954776;27;98048;-71
2024/02/03 03:10:18;;;;;;;;;;;;;;;12.69;47.26;101065.84;4937399;27;98712;-71
2024/02/03 03:12:44;;;;;;;;;;;;;;;12.68;47.30;101069.66;4951199;27;99765;-71
2024/02/03 03:15:10;;;;;;;;;;;;;;;12.67;47.54;101063.44;4951758;27;98475;-71
2024/02/03 03:17:36;;;;;;;;;;;;;;;12.69;47.62;101074.81;4955970;27;112158;-71
2024/02/03 03:20:03;;;;;;;;;;;;;;;12.70;47.36;101051.28;4969110;27;127861;-66
2024/02/03 03:22:29;;;;;;;;;;;;;;;12.70;47.52;101064.81;4942770;27;98296;-66
2024/02/03 03:24:55;;;;;;;;;;;;;;;12.69;47.36;101066.69;4959760;27;99839;-66
2024/02/03 03:27:23;;;;;;;;;;;;;;;12.70;47.33;101072.91;4955208;27;98158;-71
2024/02/03 03:29:49;;;;;;;;;;;;;;;12.70;47.35;101071.03;4974718;27;108296;-65
2024/02/03 03:32:15;;;;;;;;;;;;;;;12.71;47.24;101063.72;4972825;27;98413;-65
2024/02/03 03:34:41;;;;;;;;;;;;;;;12.70;47.42;101062.91;4969839;27;98345;-71
2024/02/03 03:37:07;;;;;;;;;;;;;;;12.70;47.50;101059.38;4942678;27;98603;-65
2024/02/03 03:39:34;;;;;;;;;;;;;;;12.70;47.67;101057.50;4972438;27;99676;-71
2024/02/03 03:42:00;;;;;;;;;;;;;;;12.70;47.22;101060.19;4943876;27;98247;-71
2024/02/03 03:44:26;;;;;;;;;;;;;;;12.71;47.56;101066.41;4941537;27;98174;-65
2024/02/03 03:46:52;;;;;;;;;;;;;;;12.72;47.42;101076.16;4971109;27;98794;-71
2024/02/03 03:49:18;;;;;;;;;;;;;;;12.71;47.43;101075.34;4954240;27;98162;-66
2024/02/03 03:51:45;;;;;;;;;;;;;;;12.71;47.50;101069.13;4958819;27;98395;-65
2024/02/03 03:54:11;;;;;;;;;;;;;;;12.71;47.70;101074.53;4941279;27;98483;-66
2024/02/03 03:56:38;;;;;;;;;;;;;;;12.72;47.58;101070.75;4970208;27;100902;-71
2024/02/03 03:59:04;;;;;;;;;;;;;;;12.71;47.51;101069.94;4975554;27;100004;-65
2024/02/03 04:01:30;;;;;;;;;;;;;;;12.71;47.70;101074.53;4970640;27;98252;-71
2024/02/03 04:03:56;;;;;;;;;;;;;;;12.72;47.46;101079.66;4954729;27;98948;-71
2024/02/03 04:06:22;;;;;;;;;;;;;;;12.72;47.35;101074.25;4976980;27;98206;-71
2024/02/03 04:08:48;;;;;;;;;;;;;;;12.72;47.43;101065.34;4941888;27;130472;-65
2024/02/03 04:11:14;;;;;;;;;;;;;;;12.72;47.68;101066.13;4973021;27;98513;-66
2024/02/03 04:13:40;;;;;;;;;;;;;;;12.73;47.33;101066.94;4972631;27;98580;-65
2024/02/03 04:16:07;;;;;;;;;;;;;;;12.74;47.67;101068.59;4958778;27;98230;-71
2024/02/03 04:18:32;;;;;;;;;;;;;;;12.73;47.60;101056.97;4958414;27;102696;-65
2024/02/03 04:20:59;;;;;;;;;;;;;;;12.74;47.36;101055.88;4968202;27;130536;-65
2024/02/03 04:23:25;;;;;;;;;;;;;;;12.75;47.45;101057.50;4953776;27;115889;-65
2024/02/03 04:25:51;;;;;;;;;;;;;;;12.74;47.62;101058.59;4939705;27;98104;-71
2024/02/03 04:28:17;;;;;;;;;;;;;;;12.76;47.33;101051.00;4937836;27;99230;-71
2024/02/03 04:30:43;;;;;;;;;;;;;;;12.77;47.56;101047.25;4974896;27;98101;-65
2024/02/03 04:33:09;;;;;;;;;;;;;;;12.78;47.51;101050.75;4960344;27;98058;-71
2024/02/03 04:35:35;;;;;;;;;;;;;;;12.78;47.60;101046.16;4959950;27;102728;-66
2024/02/03 04:38:02;;;;;;;;;;;;;;;12.80;47.57;101047.75;4938343;27;99684;-71
2024/02/03 04:40:29;;;;;;;;;;;;;;;12.80;47.35;101039.66;4940043;27;98859;-66
2024/02/03 04:42:55;;;;;;;;;;;;;;;12.82;47.46;101032.91;4947504;27;98038;-65
2024/02/03 04:45:21;;;;;;;;;;;;;;;12.81;47.38;101031.28;4957950;27;98141;-65
2024/02/03 04:47:47;;;;;;;;;;;;;;;12.82;47.69;101035.59;4962594;27;99077;-66
2024/02/03 04:50:14;;;;;;;;;;;;;;;12.82;47.77;101035.59;4957085;27;98307;-71
2024/02/03 04:52:40;;;;;;;;;;;;;;;12.83;47.62;101028.31;4949278;27;97950;-65
2024/02/03 04:55:06;;;;;;;;;;;;;;;12.84;47.61;101025.31;4945196;27;98020;-65
2024/02/03 04:57:32;;;;;;;;;;;;;;;12.84;47.54;101017.19;4977003;27;100049;-66
2024/02/03 04:59:58;;;;;;;;;;;;;;;12.85;47.69;101020.72;4946097;27;104884;-71
2024/02/03 05:02:24;;;;;;;;;;;;;;;12.86;47.64;101019.66;4942115;27;98146;-65
2024/02/03 05:04:50;;;;;;;;;;;;;;;12.86;47.38;101023.16;4945799;27;98101;-66
2024/02/03 05:07:16;;;;;;;;;;;;;;;12.86;47.33;101014.25;4945416;27;98637;-71
2024/02/03 05:09:42;;;;;;;;;;;;;;;12.87;47.76;101016.66;4944009;27;98581;-65
2024/02/03 05:12:09;;;;;;;;;;;;;;;12.88;47.29;101020.19;4962923;27;102462;-66
2024/02/03 05:14:35;;;;;;;;;;;;;;;12.88;47.39;101012.06;4944843;27;98161;-66
2024/02/03 05:17:01;;;;;;;;;;;;;;;12.89;47.58;101021.78;4956798;27;99899;-65
2024/02/03 05:19:27;;;;;;;;;;;;;;;12.89;47.56;101025.34;4955553;27;98248;-66
2024/02/03 05:21:53;;;;;;;;;;;;;;;12.90;47.57;101026.16;4944739;27;98714;-65
2024/02/03 05:24:19;;;;;;;;;;;;;;;12.91;47.35;101028.56;4979301;27;116983;-66
2024/02/03 05:26:45;;;;;;;;;;;;;;;12.91;47.70;101036.69;4944993;27;111537;-71
2024/02/03 05:29:12;;;;;;;;;;;;;;;12.91;47.39;101031.28;4957678;27;98318;-65
2024/02/03 05:31:38;;;;;;;;;;;;;;;12.92;47.51;101032.91;4945261;27;98199;-71
2024/02/03 05:34:04;;;;;;;;;;;;;;;12.92;47.41;101024.78;4959101;27;98164;-71
2024/02/03 05:36:31;;;;;;;;;;;;;;;12.94;47.56;101032.66;4947579;27;119498;-70
2024/02/03 05:38:57;;;;;;;;;;;;;;;12.94;47.30;101028.03;4976741;27;98059;-71
2024/02/03 05:41:23;;;;;;;;;;;;;;;12.94;47.57;101019.94;4971197;27;99353;-71
2024/02/03 05:43:49;;;;;;;;;;;;;;;12.96;47.45;101036.69;4944740;27;99205;-71
2024/02/03 05:46:15;;;;;;;;;;;;;;;12.97;47.27;101035.63;4955641;27;98256;-66
2024/02/03 05:48:41;;;;;;;;;;;;;;;12.97;47.45;101021.28;4970418;27;114320;-65
2024/02/03 05:51:06;;;;;;;;;;;;;;;12.96;47.74;101028.56;4970992;27;105206;-65
2024/02/03 05:53:35;;;;;;;;;;;;;;;12.98;47.37;101018.31;4960765;27;98108;-66
2024/02/03 05:56:02;;;;;;;;;;;;;;;12.99;47.45;101021.81;4945523;27;98227;-72
2024/02/03 05:58:28;;;;;;;;;;;;;;;12.99;47.54;101017.22;4955909;27;99769;-71
2024/02/03 06:00:58;;;;;;;;;;;;;;;12.98;47.51;101023.72;4954770;27;98969;-66
2024/02/03 06:03:26;;;;;;;;;;;;;;;13.00;47.75;101024.25;4960021;27;98269;-71
2024/02/03 06:05:53;;;;;;;;;;;;;;;13.01;47.75;101022.38;4944100;27;99886;-71
2024/02/03 06:08:19;;;;;;;;;;;;;;;13.01;47.41;101028.59;4968948;27;98157;-72
2024/02/03 06:10:45;;;;;;;;;;;;;;;13.02;47.66;101030.22;4952705;27;98141;-71
2024/02/03 06:13:11;;;;;;;;;;;;;;;13.02;47.67;101032.09;4974075;27;98564;-65
2024/02/03 06:15:37;;;;;;;;;;;;;;;13.02;47.43;101027.50;4943539;27;98530;-66
2024/02/03 06:18:03;;;;;;;;;;;;;;;13.04;47.40;101021.81;4940509;27;98837;-66
2024/02/03 06:20:29;;;;;;;;;;;;;;;13.03;47.41;101029.13;4969174;27;99348;-66
2024/02/03 06:22:55;;;;;;;;;;;;;;;13.04;47.61;101027.22;4955960;27;98300;-71
2024/02/03 06:25:21;;;;;;;;;;;;;;;13.06;47.60;101037.78;4937507;27;98252;-66
2024/02/03 06:27:47;;;;;;;;;;;;;;;13.05;47.48;101031.56;4942140;27;126592;-72
2024/02/03 06:30:14;;;;;;;;;;;;;;;13.06;47.70;101037.78;4968357;27;99620;-66
2024/02/03 06:32:40;;;;;;;;;;;;;;;13.06;47.59;101033.19;4953235;27;100437;-71
2024/02/03 06:35:06;;;;;;;;;;;;;;;13.07;47.37;101042.94;4934420;27;99324;-71
2024/02/03 06:37:32;;;;;;;;;;;;;;;13.08;47.80;101047.25;4955024;27;98292;-71
2024/02/03 06:39:58;;;;;;;;;;;;;;;13.09;47.74;101050.78;4953965;27;98246;-71
2024/02/03 06:42:24;;;;;;;;;;;;;;;13.08;47.62;101055.38;4971273;27;98603;-66
2024/02/03 06:44:50;;;;;;;;;;;;;;;13.09;47.66;101056.22;4938728;27;104733;-71
2024/02/03 06:47:16;;;;;;;;;;;;;;;13.09;47.41;101054.31;4954094;27;113699;-66
2024/02/03 06:49:42;;;;;;;;;;;;;;;13.11;47.69;101054.03;4969523;27;98436;-71
2024/02/03 06:52:08;;;;;;;;;;;;;;;13.11;47.56;101044.00;4957862;27;99203;-72
2024/02/03 06:54:34;;;;;;;;;;;;;;;13.12;47.71;101044.81;4967177;27;124013;-72
2024/02/03 06:57:00;;;;;;;;;;;;;;;13.13;47.67;101055.41;4953422;27;123968;-72
2024/02/03 06:59:27;;;;;;;;;;;;;;;13.13;47.54;101055.41;4957495;27;98351;-72
2024/02/03 07:01:53;;;;;;;;;;;;;;;13.15;47.64;101058.63;4955177;27;98449;-71
2024/02/03 07:04:19;;;;;;;;;;;;;;;13.15;47.63;101053.22;4938551;27;100108;-71
2024/02/03 07:06:45;;;;;;;;;;;;;;;13.16;47.41;101045.91;4968464;27;100539;-71
2024/02/03 07:09:11;;;;;;;;;;;;;;;13.18;47.42;101057.28;4951109;27;127755;-65
2024/02/03 07:11:37;;;;;;;;;;;;;;;13.18;47.55;101065.41;4973273;27;98151;-65
2024/02/03 07:14:03;;;;;;;;;;;;;;;13.20;47.79;101072.19;4957676;27;114579;-65
2024/02/03 07:16:29;;;;;;;;;;;;;;;13.22;47.68;101075.41;4953360;27;99282;-71
2024/02/03 07:18:55;;;;;;;;;;;;;;;13.26;47.69;101068.41;4936648;27;100094;-65
2024/02/03 07:21:21;;;;;;;;;;;;;;;13.27;47.49;101067.31;4952550;27;98410;-71
2024/02/03 07:23:49;;;;;;;;;;;;;;;13.30;47.35;101073.28;4952844;27;98165;-71
2024/02/03 07:26:15;;;;;;;;;;;;;;;13.31;47.29;101083.84;4981715;27;98999;-71
2024/02/03 07:28:41;;;;;;;;;;;;;;;13.32;47.56;101066.50;4939109;27;98358;-65
2024/02/03 07:31:07;;;;;;;;;;;;;;;13.34;47.63;101069.78;4948169;27;104243;-66
2024/02/03 07:33:33;;;;;;;;;;;;;;;13.35;47.28;101074.09;4939506;27;127966;-66
2024/02/03 07:35:59;;;;;;;;;;;;;;;13.36;47.62;101064.06;4950664;27;99518;-71
2024/02/03 07:38:25;;;;;;;;;;;;;;;13.41;47.60;101064.09;4952168;27;98042;-71
2024/02/03 07:40:52;;;;;;;;;;;;;;;13.44;47.24;101066.22;4939061;27;98458;-68
2024/02/03 07:43:18;;;;;;;;;;;;;;;13.55;47.25;101064.34;4938561;27;100036;-66
2024/02/03 07:45:44;;;;;;;;;;;;;;;13.63;47.29;101067.31;4967983;27;99740;-66
2024/02/03 07:48:10;;;;;;;;;;;;;;;13.75;47.42;101072.44;4936149;27;98038;-71
2024/02/03 07:50:35;;;;;;;;;;;;;;;13.85;47.41;101063.47;4936412;27;98313;-66
2024/02/03 07:53:02;;;;;;;;;;;;;;;13.86;46.97;101068.63;4955604;27;127695;-71
2024/02/03 07:55:28;;;;;;;;;;;;;;;13.90;47.26;101069.69;4966981;27;98444;-71
2024/02/03 07:57:54;;;;;;;;;;;;;;;13.93;46.99;101060.22;4940099;27;99791;-66
2024/02/03 08:00:21;;;;;;;;;;;;;;;13.92;47.15;101067.53;4956932;27;99230;-70
2024/02/03 08:02:47;;;;;;;;;;;;;;;13.97;47.10;101062.09;4949812;27;98024;-66
2024/02/03 08:05:13;;;;;;;;;;;;;;;14.14;47.15;101075.31;4953732;27;98754;-66
2024/02/03 08:07:40;;;;;;;;;;;;;;;14.32;46.82;101079.31;4957862;27;98478;-71
2024/02/03 08:10:06;;;;;;;;;;;;;;;14.40;46.82;101064.38;4938987;27;98302;-66
2024/02/03 08:12:33;;;;;;;;;;;;;;;14.47;46.70;101060.28;4954352;27;98353;-71
2024/02/03 08:14:59;;;;;;;;;;;;;;;14.49;46.81;101077.09;4951188;27;98716;-71
2024/02/03 08:17:25;;;;;;;;;;;;;;;14.54;47.10;101072.75;4956508;27;97907;-66
2024/02/03 08:19:51;;;;;;;;;;;;;;;14.60;46.92;101080.59;4970428;27;99592;-71
2024/02/03 08:22:17;;;;;;;;;;;;;;;14.73;46.96;101085.38;4951261;27;99852;-66
2024/02/03 08:24:43;;;;;;;;;;;;;;;14.88;46.79;101072.81;4936506;27;100718;-72
2024/02/03 08:27:09;;;;;;;;;;;;;;;14.83;46.74;101076.38;4942062;27;99390;-66
2024/02/03 08:29:35;;;;;;;;;;;;;;;14.79;46.85;101078.03;4955262;27;98437;-72
2024/02/03 08:32:01;;;;;;;;;;;;;;;14.77;47.01;101069.34;4966908;27;98303;-66
2024/02/03 08:34:28;;;;;;;;;;;;;;;14.73;47.02;101079.97;4955886;27;98417;-66
2024/02/03 08:36:54;;;;;;;;;;;;;;;14.69;46.96;101081.59;4955622;27;99565;-66
2024/02/03 08:39:20;;;;;;;;;;;;;;;14.66;47.24;101078.66;4939375;27;99619;-71
2024/02/03 08:41:45;;;;;;;;;;;;;;;14.66;47.21;101073.25;4939394;27;98399;-71
2024/02/03 08:44:11;;;;;;;;;;;;;;;14.65;47.12;101087.88;4951508;27;130330;-66
2024/02/03 08:46:37;;;;;;;;;;;;;;;14.60;47.36;101075.16;4951528;27;98160;-71
2024/02/03 08:49:03;;;;;;;;;;;;;;;14.58;47.30;101079.22;4963667;27;98452;-71
2024/02/03 08:51:29;;;;;;;;;;;;;;;14.54;47.54;101083.59;4938129;27;104419;-71
2024/02/03 08:53:55;;;;;;;;;;;;;;;14.56;47.26;101082.22;4946638;27;105478;-66
2024/02/03 08:56:21;;;;;;;;;;;;;;;14.63;47.34;101085.47;4971046;27;99108;-66
2024/02/03 08:58:47;;;;;;;;;;;;;;;14.74;47.31;101083.50;4937893;27;99598;-72
2024/02/03 09:01:14;;;;;;;;;;;;;;;14.79;47.25;101090.81;4966941;27;99680;-71
2024/02/03 09:03:40;;;;;;;;;;;;;;;14.78;47.15;101092.72;4952559;27;98607;-66
2024/02/03 09:06:06;;;;;;;;;;;;;;;14.81;47.06;101094.03;4937224;27;99103;-66
2024/02/03 09:08:32;;;;;;;;;;;;;;;14.82;47.13;101088.34;4940288;27;102127;-66
2024/02/03 09:10:58;;;;;;;;;;;;;;;14.82;47.33;101088.34;4953942;27;99979;-71
2024/02/03 09:13:25;;;;;;;;;;;;;;;14.86;47.26;101089.41;4936868;27;98305;-71
2024/02/03 09:15:51;;;;;;;;;;;;;;;14.92;47.22;101092.88;4951648;27;99020;-66
2024/02/03 09:18:17;;;;;;;;;;;;;;;14.91;46.99;101088.56;4937212;27;103079;-66
2024/02/03 09:20:44;;;;;;;;;;;;;;;14.89;47.10;101093.44;4968625;27;98730;-71
2024/02/03 09:23:10;;;;;;;;;;;;;;;14.86;47.46;101108.41;4966310;27;100185;-66
2024/02/03 09:25:39;;;;;;;;;;;;;;;14.84;47.22;101101.63;4967794;27;99403;-71
2024/02/03 09:28:06;;;;;;;;;;;;;;;14.84;47.29;101105.13;4938360;27;98281;-66
2024/02/03 09:30:32;;;;;;;;;;;;;;;14.81;47.34;101100.25;4938291;27;98731;-71
2024/02/03 09:32:57;;;;;;;;;;;;;;;14.81;47.19;101094.84;4967661;27;99028;-66
2024/02/03 09:35:24;;;;;;;;;;;;;;;14.79;47.37;101097.03;4935425;27;98902;-66
2024/02/03 09:37:50;;;;;;;;;;;;;;;14.82;47.60;101104.63;4942388;27;99729;-66
2024/02/03 09:40:20;;;;;;;;;;;;;;;14.91;47.30;101110.28;4936423;27;99106;-71
2024/02/03 09:42:47;;;;;;;;;;;;;;;14.92;47.48;101103.75;4972386;27;99558;-71
2024/02/03 09:45:14;;;;;;;;;;;;;;;14.92;47.45;101101.03;4952973;27;98767;-66
2024/02/03 09:47:40;;;;;;;;;;;;;;;14.91;47.38;101104.84;4941890;27;101793;-72
2024/02/03 09:50:06;;;;;;;;;;;;;;;14.93;47.18;101113.50;4936959;27;98938;-71
2024/02/03 09:52:33;;;;;;;;;;;;;;;14.99;47.25;101112.38;4939539;27;107721;-71
2024/02/03 09:54:59;;;;;;;;;;;;;;;15.05;47.44;101126.72;4934186;27;98482;-66
2024/02/03 09:57:26;;;;;;;;;;;;;;;15.03;47.41;101118.06;4955229;27;98418;-71
2024/02/03 09:59:52;;;;;;;;;;;;;;;15.00;47.53;101119.44;4969165;27;98569;-66
2024/02/03 10:02:19;;;;;;;;;;;;;;;15.00;47.37;101121.34;4951519;27;99262;-71
2024/02/03 10:04:45;;;;;;;;;;;;;;;15.00;47.31;101115.91;4983653;27;99129;-71
2024/02/03 10:07:11;;;;;;;;;;;;;;;14.98;47.23;101117.00;4966910;27;98130;-71
2024/02/03 10:09:38;;;;;;;;;;;;;;;15.03;47.56;101121.59;4955777;27;98634;-66
2024/02/03 10:12:04;;;;;;;;;;;;;;;15.01;47.30;101121.03;4955743;27;99590;-66
2024/02/03 10:14:30;;;;;;;;;;;;;;;14.96;47.58;101121.91;4940234;27;98314;-66
2024/02/03 10:16:57;;;;;;;;;;;;;;;14.98;47.51;101114.28;4958892;27;99250;-71
2024/02/03 10:19:22;;;;;;;;;;;;;;;15.05;47.24;101105.84;4933072;27;99415;-66
2024/02/03 10:21:50;;;;;;;;;;;;;;;15.04;47.29;101112.34;4967883;27;124220;-66
2024/02/03 10:24:24;;;;;;;;;;;;;;;15.04;47.36;101115.06;4940566;27;99053;-66
2024/02/03 10:27:03;;;;;;;;;;;;;;;15.02;47.31;101113.75;4953074;27;98474;-66
2024/02/03 10:29:29;;;;;;;;;;;;;;;14.96;47.46;101127.31;4971078;27;99295;-72
2024/02/03 10:31:55;;;;;;;;;;;;;;;14.93;47.52;101122.47;4985885;27;98190;-72
2024/02/03 10:34:22;;;;;;;;;;;;;;;14.93;47.44;101135.22;4953890;27;98191;-71
2024/02/03 10:36:48;;;;;;;;;;;;;;;14.93;47.57;101124.34;4940260;27;98125;-71
2024/02/03 10:39:14;;;;;;;;;;;;;;;14.92;47.58;101128.16;4939275;27;98364;-66
2024/02/03 10:41:42;;;;;;;;;;;;;;;14.93;47.51;101124.34;4940184;27;99591;-66
2024/02/03 10:44:09;;;;;;;;;;;;;;;14.94;47.71;101131.44;4936774;27;99161;-71
2024/02/03 10:46:41;;;;;;;;;;;;;;;14.94;47.39;101140.38;4971143;27;98267;-72
2024/02/03 10:49:15;;;;;;;;;;;;;;;14.88;47.73;101155.06;4940635;27;98346;-66
2024/02/03 10:51:42;;;;;;;;;;;;;;;14.87;47.79;101142.59;4958655;27;97913;-72
2024/02/03 10:54:17;;;;;;;;;;;;;;;14.87;47.47;101155.34;4955606;27;99189;-66
2024/02/03 10:56:45;;;;;;;;;;;;;;;14.96;47.52;101149.03;4941515;27;98124;-72
2024/02/03 10:59:17;;;;;;;;;;;;;;;15.16;47.14;101150.81;4940774;27;98281;-72
2024/02/03 11:01:43;;;;;;;;;;;;;;;15.29;47.15;101143.13;4955472;27;98021;-66
2024/02/03 11:04:13;;;;;;;;;;;;;;;15.29;47.12;101149.41;4951189;27;99457;-72
2024/02/03 11:06:39;;;;;;;;;;;;;;;15.37;47.25;101137.13;4956094;27;98479;-67
2024/02/03 11:09:20;;;;;;;;;;;;;;;15.41;47.19;101125.41;4982800;27;103356;-72
2024/02/03 11:11:47;;;;;;;;;;;;;;;15.53;47.00;101116.88;4937924;27;98642;-66
2024/02/03 11:14:18;;;;;;;;;;;;;;;15.73;46.98;101123.28;4967046;27;98947;-66
2024/02/03 11:16:54;;;;;;;;;;;;;;;15.91;46.76;101119.81;4956799;27;98313;-67
2024/02/03 11:19:30;;;;;;;;;;;;;;;15.95;46.66;101116.25;4957291;27;99076;-72
2024/02/03 11:21:56;;;;;;;;;;;;;;;15.94;46.82;101111.91;4953084;27;98331;-73
2024/02/03 11:24:23;;;;;;;;;;;;;;;15.91;46.90;101106.22;4933464;27;98596;-72
2024/02/03 11:27:02;;;;;;;;;;;;;;;15.88;47.13;101113.06;4940727;27;102889;-66
2024/02/03 11:29:29;;;;;;;;;;;;;;;15.92;47.21;101102.44;4954869;27;98396;-66
2024/02/03 11:31:58;;;;;;;;;;;;;;;15.91;47.13;101107.03;4936864;27;98495;-66
2024/02/03 11:34:27;;;;;;;;;;;;;;;16.07;46.95;101096.84;4970632;27;98326;-72
2024/02/03 11:36:54;;;;;;;;;;;;;;;16.28;46.70;101083.81;4951075;27;98128;-72
2024/02/03 11:39:30;;;;;;;;;;;;;;;16.43;46.58;101104.56;4938630;27;98826;-66
2024/02/03 11:41:57;;;;;;;;;;;;;;;16.43;46.69;101088.25;4939315;27;99703;-66
2024/02/03 11:44:23;;;;;;;;;;;;;;;16.42;46.91;101086.59;4955546;27;98626;-72
2024/02/03 11:46:50;;;;;;;;;;;;;;;16.43;46.98;101083.63;4955454;27;98226;-66
2024/02/03 11:49:16;;;;;;;;;;;;;;;16.48;46.79;101079.22;4955367;27;99624;-71
2024/02/03 11:51:42;;;;;;;;;;;;;;;16.50;46.91;101083.25;4953327;27;98366;-71
2024/02/03 11:54:08;;;;;;;;;;;;;;;16.43;47.11;101077.38;4954897;27;118252;-71
2024/02/03 11:56:35;;;;;;;;;;;;;;;16.38;46.89;101061.91;4941574;27;98177;-66
2024/02/03 11:59:05;;;;;;;;;;;;;;;16.43;46.98;101056.41;4973320;27;100047;-72
2024/02/03 12:01:32;;;;;;;;;;;;;;;16.62;46.91;101066.47;4983213;27;109613;-66
2024/02/03 12:03:58;;;;;;;;;;;;;;;16.70;46.89;101063.09;4936597;27;98030;-66
2024/02/03 12:06:24;;;;;;;;;;;;;;;16.78;46.70;101065.22;4965172;27;99162;-70
2024/02/03 12:08:50;;;;;;;;;;;;;;;16.96;46.55;101054.59;4941134;27;98835;-65
2024/02/03 12:11:16;;;;;;;;;;;;;;;17.17;46.52;101045.84;4936310;27;113078;-66
2024/02/03 12:13:43;;;;;;;;;;;;;;;17.31;46.48;101055.94;4945590;27;98410;-71
2024/02/03 12:16:10;;;;;;;;;;;;;;;17.26;46.61;101050.59;4934590;27;98134;-66
2024/02/03 12:18:39;;;;;;;;;;;;;;;17.13;46.87;101052.16;4916668;27;102227;-67
2024/02/03 12:21:08;;;;;;;;;;;;;;;17.05;46.82;101052.81;4945393;27;100315;-67
2024/02/03 12:23:34;;;;;;;;;;;;;;;16.98;47.09;101055.09;4955822;27;98425;-67
2024/02/03 12:26:00;;;;;;;;;;;;;;;16.87;47.06;101057.19;4940428;27;98214;-67
2024/02/03 12:28:26;;;;;;;;;;;;;;;16.92;47.09;101041.56;4941196;27;99958;-71
2024/02/03 12:30:57;;;;;;;;;;;;;;;16.98;47.04;101041.50;4954248;27;98613;-67